FW4776 Weather Reports


Display with metric or nautical units.
time (UTC)temp
F
wind
direction
speed
MPH
gust
MPH
rain 1hr
in
rain 24hr
in
rain mn
in
humidity
%
barometer
mb
20240227032704 61 118 11.0 23.0 0.00 0.00 0.00 40 1006.9
20240227031803 61 111 10.0 17.0 0.00 0.00 0.00 41 1006.9
20240227030903 61 118 9.0 20.0 0.00 0.00 0.00 40 1007.1
20240227030213 61 144 9.0 17.0 0.00 0.00 0.00 40 1007.0
20240227025615 61 162 12.0 20.0 0.00 0.00 0.00 40 1006.8
20240227024503 62 172 18.0 23.0 0.00 0.00 0.00 39 1006.5
20240227023603 62 181 18.0 27.0 0.00 0.00 0.00 39 1006.6
20240227022917 62 179 16.0 27.0 0.00 0.00 0.00 38 1006.6
20240227022014 62 172 14.0 23.0 0.00 0.00 0.00 38 1007.0
20240227020903 62 160 11.0 19.0 0.00 0.00 0.00 38 1007.2
20240227020004 62 162 13.0 22.0 0.00 0.00 0.00 38 1007.2
20240227015403 62 168 13.0 22.0 0.00 0.00 0.00 38 1007.2
20240227014503 62 171 13.0 20.0 0.00 0.00 0.00 37 1007.3
20240227013604 62 167 13.0 23.0 0.00 0.00 0.00 37 1007.3
20240227012703 62 166 14.0 25.0 0.00 0.00 0.00 37 1007.2
20240227011803 62 173 14.0 28.0 0.00 0.00 0.00 36 1007.2
20240227010903 63 168 12.0 18.0 0.00 0.00 0.00 36 1007.2
20240227010004 63 172 13.0 19.0 0.00 0.00 0.00 35 1007.3
20240227005616 63 175 14.0 19.0 0.00 0.00 0.00 35 1007.4
20240227004503 63 178 14.0 23.0 0.00 0.00 0.00 35 1007.3
20240227003603 64 176 15.0 23.0 0.00 0.00 0.00 35 1007.5
20240227002703 64 175 14.0 19.0 0.00 0.00 0.00 35 1007.6
20240227001803 64 175 16.0 23.0 0.00 0.00 0.00 35 1007.5
20240227000903 64 170 14.0 22.0 0.00 0.00 0.00 35 1007.6
20240227000003 64 171 13.0 21.0 0.00 0.00 0.00 35 1007.7
20240226235403 65 170 12.0 21.0 0.00 0.00 0.00 35 1007.9
20240226234714 65 158 10.0 18.0 0.00 0.00 0.00 35 1008.0
20240226233603 64 130 9.0 16.0 0.00 0.00 0.00 35 1008.3
20240226232703 64 135 8.0 16.0 0.00 0.00 0.00 35 1008.2
20240226231803 64 126 10.0 18.0 0.00 0.00 0.00 34 1008.4
20240226230904 64 132 9.0 15.0 0.00 0.00 0.00 35 1008.4
20240226230003 64 148 9.0 18.0 0.00 0.00 0.00 34 1008.4
20240226225403 64 162 14.0 24.0 0.00 0.00 0.00 34 1008.5
20240226224503 65 171 17.0 28.0 0.00 0.00 0.00 33 1008.5
20240226223603 65 173 16.0 27.0 0.00 0.00 0.00 33 1008.6
20240226222703 66 171 14.0 21.0 0.00 0.00 0.00 33 1008.6
20240226221803 66 166 13.0 21.0 0.00 0.00 0.00 32 1008.9
20240226220903 66 166 12.0 20.0 0.00 0.00 0.00 32 1009.2
20240226220003 66 167 13.0 21.0 0.00 0.00 0.00 31 1009.3
20240226215404 67 163 12.0 21.0 0.00 0.00 0.00 30 1009.3
20240226214508 68 141 8.0 16.0 0.00 0.00 0.00 28 1009.3
20240226213603 69 138 7.0 13.0 0.00 0.00 0.00 28 1009.5
20240226212703 69 152 7.0 14.0 0.00 0.00 0.00 28 1009.8
20240226211818 68 171 5.0 12.0 0.00 0.00 0.00 27 1009.7
20240226210903 67 157 6.0 12.0 0.00 0.00 0.00 27 1009.8
20240226210003 67 170 9.0 13.0 0.00 0.00 0.00 27 1009.9
20240226205403 68 170 9.0 13.0 0.00 0.00 0.00 28 1010.1
20240226204503 67 180 8.0 14.0 0.00 0.00 0.00 28 1010.2
20240226203604 68 182 9.0 15.0 0.00 0.00 0.00 27 1010.5
20240226202703 67 166 11.0 16.0 0.00 0.00 0.00 28 1010.6
20240226201803 67 176 13.0 18.0 0.00 0.00 0.00 29 1010.9
20240226200903 67 172 11.0 16.0 0.00 0.00 0.00 29 1011.1
20240226200004 67 175 10.0 16.0 0.00 0.00 0.00 29 1011.7
20240226195403 66 169 9.0 16.0 0.00 0.00 0.00 28 1011.7
20240226194716 66 170 9.0 15.0 0.00 0.00 0.00 28 1011.8
20240226193603 66 145 10.0 18.0 0.00 0.00 0.00 30 1012.0
20240226192703 65 123 11.0 21.0 0.00 0.00 0.00 32 1012.1
20240226191804 65 127 10.0 19.0 0.00 0.00 0.00 31 1012.3
20240226191116 65 132 10.0 15.0 0.00 0.00 0.00 32 1012.3
20240226190003 64 130 10.0 19.0 0.00 0.00 0.00 32 1012.4
20240226185403 64 138 10.0 20.0 0.00 0.00 0.00 33 1012.7
20240226184504 64 150 10.0 20.0 0.00 0.00 0.00 32 1012.9
20240226183603 65 155 9.0 16.0 0.00 0.00 0.00 32 1013.0
20240226182703 65 142 8.0 13.0 0.00 0.00 0.00 32 1013.1
20240226181803 65 156 8.0 14.0 0.00 0.00 0.00 32 1013.1
20240226180904 64 157 9.0 15.0 0.00 0.00 0.00 32 1013.1
20240226180003 63 135 8.0 13.0 0.00 0.00 0.00 33 1013.1
20240226175403 62 134 8.0 13.0 0.00 0.00 0.00 33 1013.2
20240226174503 62 144 7.0 14.0 0.00 0.00 0.00 34 1013.1
20240226173815 62 137 7.0 14.0 0.00 0.00 0.00 34 1013.3
20240226172703 61 148 6.0 13.0 0.00 0.00 0.00 35 1013.5
20240226171803 61 129 7.0 15.0 0.00 0.00 0.00 36 1013.4
20240226170903 61 135 7.0 15.0 0.00 0.00 0.00 35 1013.4
20240226170214 61 137 7.0 15.0 0.00 0.00 0.00 35 1013.3
20240226164503 62 141 8.0 15.0 0.00 0.00 0.00 34 1013.4
20240226163603 62 138 7.0 14.0 0.00 0.00 0.00 34 1013.4
20240226162703 62 139 7.0 13.0 0.00 0.00 0.00 35 1013.4
20240226161804 61 139 7.0 12.0 0.00 0.00 0.00 36 1013.4
20240226160003 60 144 6.0 12.0 0.00 0.00 0.00 36 1013.4
20240226155403 60 147 7.0 12.0 0.00 0.00 0.00 36 1013.4
20240226154714 60 143 6.0 13.0 0.00 0.00 0.00 36 1013.5
20240226153603 59 128 8.0 14.0 0.00 0.00 0.00 36 1013.4
20240226152703 58 123 9.0 15.0 0.00 0.00 0.00 39 1013.4
20240226151803 56 120 8.0 14.0 0.00 0.00 0.00 41 1013.5
20240226150903 55 127 7.0 13.0 0.00 0.00 0.00 43 1013.7
20240226150004 55 113 10.0 13.0 0.00 0.00 0.00 43 1013.7
20240226145403 54 119 9.0 13.0 0.00 0.00 0.00 43 1013.5
20240226144714 54 120 8.0 13.0 0.00 0.00 0.00 43 1013.7
20240226143603 53 125 4.0 8.0 0.00 0.00 0.00 44 1013.5
20240226142703 54 123 6.0 11.0 0.00 0.00 0.00 43 1013.5
20240226141803 54 124 8.0 14.0 0.00 0.00 0.00 42 1013.5
20240226140903 53 138 5.0 8.0 0.00 0.00 0.00 43 1013.4
20240226140003 54 117 7.0 11.0 0.00 0.00 0.00 42 1013.1
20240226135403 54 110 7.0 13.0 0.00 0.00 0.00 42 1013.1
20240226134504 54 124 7.0 12.0 0.00 0.00 0.00 42 1013.0
20240226133603 54 132 8.0 15.0 0.00 0.00 0.00 42 1013.1
20240226132703 53 135 7.0 14.0 0.00 0.00 0.00 42 1013.1
20240226131803 52 132 6.0 12.0 0.00 0.00 0.00 44 1012.9
20240226130904 52 137 4.0 8.0 0.00 0.00 0.00 43 1012.9
20240226130217 53 144 5.0 8.0 0.00 0.00 0.00 43 1013.1
20240226125403 52 159 5.0 8.0 0.00 0.00 0.00 44 1013.1
20240226124716 53 157 5.0 8.0 0.00 0.00 0.00 43 1013.2
20240226123603 53 149 3.0 6.0 0.00 0.00 0.00 43 1013.1
20240226122703 54 129 4.0 8.0 0.00 0.00 0.00 41 1013.3
20240226121803 55 139 3.0 7.0 0.00 0.00 0.00 40 1013.2
20240226120903 56 146 5.0 12.0 0.00 0.00 0.00 37 1013.2
20240226120212 56 144 5.0 12.0 0.00 0.00 0.00 37 1013.2
20240226115403 56 146 5.0 9.0 0.00 0.00 0.00 38 1013.4
20240226114503 55 139 4.0 8.0 0.00 0.00 0.00 38 1013.4
20240226113603 56 147 4.0 9.0 0.00 0.00 0.00 37 1013.4
20240226112703 57 135 5.0 8.0 0.00 0.00 0.00 36 1013.5
20240226111804 57 118 7.0 13.0 0.00 0.00 0.00 36 1013.6
20240226111116 56 120 6.0 9.0 0.00 0.00 0.00 37 1013.4
20240226110213 56 117 6.0 13.0 0.00 0.00 0.00 38 1013.8
20240226105614 54 110 5.0 9.0 0.00 0.00 0.00 40 1013.7
20240226104503 52 115 4.0 6.0 0.00 0.00 0.00 44 1013.9
20240226103603 50 143 4.0 7.0 0.00 0.00 0.00 46 1014.0
20240226102916 49 146 3.0 6.0 0.00 0.00 0.00 49 1014.1
20240226101803 47 155 2.0 5.0 0.00 0.00 0.00 53 1013.9
20240226100903 46 176 2.0 6.0 0.00 0.00 0.00 56 1013.9
20240226100214 46 189 2.0 6.0 0.00 0.00 0.00 58 1013.9
20240226095403 46 205 3.0 5.0 0.00 0.00 0.00 56 1013.9
20240226094503 47 188 2.0 4.0 0.00 0.00 0.00 53 1013.9
20240226093815 47 165 2.0 5.0 0.00 0.00 0.00 51 1013.8
20240226092703 50 127 3.0 5.0 0.00 0.00 0.00 47 1013.9
20240226091803 48 108 3.0 5.0 0.00 0.00 0.00 49 1013.9
20240226090903 46 118 2.0 5.0 0.00 0.00 0.00 58 1014.1
20240226090214 45 113 1.0 2.0 0.00 0.00 0.00 64 1014.2
20240226085616 45 102 1.0 2.0 0.00 0.00 0.00 66 1014.1
20240226084504 46 203 0.0 1.0 0.00 0.00 0.00 64 1014.4
20240226083603 47 221 1.0 2.0 0.00 0.00 0.00 62 1014.5
20240226082703 47 215 1.0 4.0 0.00 0.00 0.00 62 1014.6
20240226081803 47 187 1.0 2.0 0.00 0.00 0.00 61 1014.4
20240226080903 48 169 1.0 3.0 0.00 0.00 0.00 60 1014.4
20240226080003 49 212 1.0 4.0 0.00 0.00 0.00 57 1014.5
20240226075403 50 209 2.0 4.0 0.00 0.00 0.00 56 1014.5
20240226074503 51 200 3.0 6.0 0.00 0.00 0.00 52 1014.6
20240226073603 51 197 2.0 5.0 0.00 0.00 0.00 49 1014.6
20240226072704 52 192 1.0 3.0 0.00 0.00 0.00 48 1014.6
20240226072016 53 174 3.0 9.0 0.00 0.00 0.00 47 1014.6
20240226070903 52 172 3.0 6.0 0.00 0.00 0.00 47 1014.7
20240226070003 52 146 4.0 9.0 0.00 0.00 0.00 47 1014.9
20240226065404 53 139 3.0 6.0 0.00 0.00 0.00 46 1014.7
20240226064503 53 157 2.0 5.0 0.00 0.00 0.00 46 1014.9
20240226063603 53 199 1.0 4.0 0.00 0.00 0.00 46 1014.9
20240226062703 55 139 4.0 8.0 0.00 0.00 0.00 43 1015.0
20240226061804 56 122 5.0 9.0 0.00 0.00 0.00 41 1015.0
20240226060903 55 130 4.0 8.0 0.00 0.00 0.00 42 1015.2
20240226060003 54 144 3.0 6.0 0.00 0.00 0.00 44 1015.2
20240226055403 54 146 3.0 5.0 0.00 0.00 0.00 44 1015.1
20240226054503 53 143 3.0 6.0 0.00 0.00 0.00 46 1015.1
20240226053604 52 153 3.0 4.0 0.00 0.00 0.00 49 1015.0
20240226052703 52 167 4.0 6.0 0.00 0.00 0.00 52 1015.0
20240226051803 52 114 2.0 5.0 0.00 0.00 0.00 52 1014.8
20240226051115 51 136 0.0 2.0 0.00 0.00 0.00 55 1014.9
20240226050004 52 192 1.0 5.0 0.00 0.00 0.00 54 1014.9
20240226045404 53 167 0.0 2.0 0.00 0.00 0.00 52 1015.0
20240226044503 53 154 1.0 4.0 0.00 0.00 0.00 52 1015.1
20240226043603 53 181 2.0 6.0 0.00 0.00 0.00 52 1015.1
20240226042703 54 157 1.0 4.0 0.00 0.00 0.00 50 1015.0
20240226041803 55 92 1.0 3.0 0.00 0.00 0.00 48 1015.0
20240226040903 57 109 2.0 5.0 0.00 0.00 0.00 44 1014.8
20240226040003 57 125 3.0 5.0 0.00 0.00 0.00 44 1014.9
20240226035403 58 128 4.0 6.0 0.00 0.00 0.00 43 1014.8
20240226034504 57 117 4.0 7.0 0.00 0.00 0.00 45 1014.9
20240226033603 57 113 5.0 8.0 0.00 0.00 0.00 45 1014.7